sensor_id;sensor_type;location;lat;lon;timestamp;pressure;altitude;pressure_sealevel;temperature;humidity
71966;BME280;59836;52.132;5.442;2023-04-09T00:00:08;102702.09;;;9.23;86.43
71966;BME280;59836;52.132;5.442;2023-04-09T00:02:35;102692.13;;;9.23;86.20
71966;BME280;59836;52.132;5.442;2023-04-09T00:05:02;102691.09;;;9.24;86.08
71966;BME280;59836;52.132;5.442;2023-04-09T00:07:28;102695.03;;;9.22;86.44
71966;BME280;59836;52.132;5.442;2023-04-09T00:09:55;102696.25;;;9.26;85.97
71966;BME280;59836;52.132;5.442;2023-04-09T00:12:21;102691.91;;;9.25;86.44
71966;BME280;59836;52.132;5.442;2023-04-09T00:14:48;102696.25;;;9.26;86.60
71966;BME280;59836;52.132;5.442;2023-04-09T00:17:14;102692.94;;;9.24;86.76
71966;BME280;59836;52.132;5.442;2023-04-09T00:19:41;102692.94;;;9.24;85.78
71966;BME280;59836;52.132;5.442;2023-04-09T00:22:07;102695.03;;;9.22;86.02
71966;BME280;59836;52.132;5.442;2023-04-09T00:24:34;102692.13;;;9.23;85.98
71966;BME280;59836;52.132;5.442;2023-04-09T00:27:00;102682.78;;;9.19;85.69
71966;BME280;59836;52.132;5.442;2023-04-09T00:29:27;102690.47;;;9.22;85.82
71966;BME280;59836;52.132;5.442;2023-04-09T00:31:53;102690.22;;;9.24;86.08
71966;BME280;59836;52.132;5.442;2023-04-09T00:34:19;102690.22;;;9.24;86.22
71966;BME280;59836;52.132;5.442;2023-04-09T00:36:46;102679.41;;;9.24;86.72
71966;BME280;59836;52.132;5.442;2023-04-09T00:39:12;102684.63;;;9.25;86.16
71966;BME280;59836;52.132;5.442;2023-04-09T00:41:39;102676.25;;;9.27;86.23
71966;BME280;59836;52.132;5.442;2023-04-09T00:44:05;102679.19;;;9.25;85.68
71966;BME280;59836;52.132;5.442;2023-04-09T00:46:31;102674.84;;;9.24;86.18
71966;BME280;59836;52.132;5.442;2023-04-09T00:48:58;102672.13;;;9.24;86.32
71966;BME280;59836;52.132;5.442;2023-04-09T00:51:24;102674.84;;;9.24;86.26
71966;BME280;59836;52.132;5.442;2023-04-09T00:53:52;102670.47;;;9.23;86.21
71966;BME280;59836;52.132;5.442;2023-04-09T00:56:20;102671.72;;;9.21;86.67
71966;BME280;59836;52.132;5.442;2023-04-09T00:58:47;102674.41;;;9.21;86.46
71966;BME280;59836;52.132;5.442;2023-04-09T01:01:14;102674.22;;;9.22;86.59
71966;BME280;59836;52.132;5.442;2023-04-09T01:03:41;102669.63;;;9.23;86.22
71966;BME280;59836;52.132;5.442;2023-04-09T01:13:48;102669.63;;;9.23;85.97
71966;BME280;59836;52.132;5.442;2023-04-09T01:16:19;102660.06;;;9.20;86.07
71966;BME280;59836;52.132;5.442;2023-04-09T01:19:30;102660.88;;;9.21;86.35
71966;BME280;59836;52.132;5.442;2023-04-09T01:22:01;102654.41;;;9.22;85.82
71966;BME280;59836;52.132;5.442;2023-04-09T01:27:38;102657.97;;;9.22;85.90
71966;BME280;59836;52.132;5.442;2023-04-09T01:30:08;102658.78;;;9.23;86.10
71966;BME280;59836;52.132;5.442;2023-04-09T01:32:37;102653.38;;;9.23;85.98
71966;BME280;59836;52.132;5.442;2023-04-09T01:35:06;102656.09;;;9.23;85.97
71966;BME280;59836;52.132;5.442;2023-04-09T01:37:33;102654.41;;;9.22;85.78
71966;BME280;59836;52.132;5.442;2023-04-09T01:40:01;102650.06;;;9.21;85.99
71966;BME280;59836;52.132;5.442;2023-04-09T01:42:28;102653.38;;;9.23;86.17
71966;BME280;59836;52.132;5.442;2023-04-09T01:44:55;102651.72;;;9.22;86.16
71966;BME280;59836;52.132;5.442;2023-04-09T01:47:22;102651.72;;;9.22;86.03
71966;BME280;59836;52.132;5.442;2023-04-09T01:49:49;102648.38;;;9.20;86.43
71966;BME280;59836;52.132;5.442;2023-04-09T01:52:16;102645.69;;;9.20;86.60
71966;BME280;59836;52.132;5.442;2023-04-09T01:54:42;102647.34;;;9.21;85.87
71966;BME280;59836;52.132;5.442;2023-04-09T01:57:09;102643.22;;;9.18;86.38
71966;BME280;59836;52.132;5.442;2023-04-09T01:59:35;102641.31;;;9.19;86.28
71966;BME280;59836;52.132;5.442;2023-04-09T02:02:09;102641.31;;;9.19;86.04
71966;BME280;59836;52.132;5.442;2023-04-09T02:04:44;102645.06;;;9.18;86.34
71966;BME280;59836;52.132;5.442;2023-04-09T02:07:46;102645.06;;;9.18;86.41
71966;BME280;59836;52.132;5.442;2023-04-09T02:10:16;102640.69;;;9.16;86.65
71966;BME280;59836;52.132;5.442;2023-04-09T02:12:47;102638.00;;;9.16;86.89
71966;BME280;59836;52.132;5.442;2023-04-09T02:15:15;102638.00;;;9.16;86.46
71966;BME280;59836;52.132;5.442;2023-04-09T02:17:42;102637.19;;;9.16;86.80
71966;BME280;59836;52.132;5.442;2023-04-09T02:20:09;102637.19;;;9.16;86.70
71966;BME280;59836;52.132;5.442;2023-04-09T02:22:35;102631.75;;;9.16;87.38
71966;BME280;59836;52.132;5.442;2023-04-09T02:25:02;102627.59;;;9.13;86.46
71966;BME280;59836;52.132;5.442;2023-04-09T02:27:28;102624.88;;;9.13;87.12
71966;BME280;59836;52.132;5.442;2023-04-09T02:29:55;102623.84;;;9.14;87.39
71966;BME280;59836;52.132;5.442;2023-04-09T02:32:21;102623.84;;;9.14;86.93
71966;BME280;59836;52.132;5.442;2023-04-09T02:34:48;102624.69;;;9.15;87.31
71966;BME280;59836;52.132;5.442;2023-04-09T02:37:14;102623.84;;;9.14;87.40
71966;BME280;59836;52.132;5.442;2023-04-09T02:39:40;102617.63;;;9.14;86.87
71966;BME280;59836;52.132;5.442;2023-04-09T02:42:07;102620.53;;;9.12;86.83
71966;BME280;59836;52.132;5.442;2023-04-09T02:44:33;102622.59;;;9.10;86.71
71966;BME280;59836;52.132;5.442;2023-04-09T02:47:00;102623.47;;;9.11;87.10
71966;BME280;59836;52.132;5.442;2023-04-09T02:49:26;102619.91;;;9.10;86.69
71966;BME280;59836;52.132;5.442;2023-04-09T02:51:53;102615.34;;;9.11;86.94
71966;BME280;59836;52.132;5.442;2023-04-09T02:54:19;102618.44;;;9.14;87.06
71966;BME280;59836;52.132;5.442;2023-04-09T02:56:45;102609.69;;;9.12;87.54
71966;BME280;59836;52.132;5.442;2023-04-09T02:59:12;102615.34;;;9.11;87.16
71966;BME280;59836;52.132;5.442;2023-04-09T03:01:38;102612.00;;;9.09;87.08
71966;BME280;59836;52.132;5.442;2023-04-09T03:04:05;102611.78;;;9.10;87.67
71966;BME280;59836;52.132;5.442;2023-04-09T03:06:32;102610.13;;;9.09;87.52
71966;BME280;59836;52.132;5.442;2023-04-09T03:08:59;102607.66;;;9.08;87.27
71966;BME280;59836;52.132;5.442;2023-04-09T03:11:25;102612.22;;;9.07;87.40
71966;BME280;59836;52.132;5.442;2023-04-09T03:13:52;102611.16;;;9.08;87.15
71966;BME280;59836;52.132;5.442;2023-04-09T03:16:18;102613.69;;;9.10;87.28
71966;BME280;59836;52.132;5.442;2023-04-09T03:18:45;102612.63;;;9.11;87.28
71966;BME280;59836;52.132;5.442;2023-04-09T03:21:11;102611.78;;;9.10;86.85
71966;BME280;59836;52.132;5.442;2023-04-09T03:23:40;102612.84;;;9.09;87.12
71966;BME280;59836;52.132;5.442;2023-04-09T03:26:06;102608.69;;;9.07;86.65
71966;BME280;59836;52.132;5.442;2023-04-09T03:28:33;102606.81;;;9.07;86.82
71966;BME280;59836;52.132;5.442;2023-04-09T03:30:59;102602.00;;;9.09;87.12
71966;BME280;59836;52.132;5.442;2023-04-09T03:33:26;102603.91;;;9.09;86.74
71966;BME280;59836;52.132;5.442;2023-04-09T03:35:52;102598.69;;;9.07;86.92
71966;BME280;59836;52.132;5.442;2023-04-09T03:38:19;102603.06;;;9.08;86.74
71966;BME280;59836;52.132;5.442;2023-04-09T03:40:45;102593.88;;;9.09;86.98
71966;BME280;59836;52.132;5.442;2023-04-09T03:43:12;102593.88;;;9.09;86.98
71966;BME280;59836;52.132;5.442;2023-04-09T03:45:38;102594.72;;;9.10;86.85
71966;BME280;59836;52.132;5.442;2023-04-09T03:48:05;102596.59;;;9.09;87.11
71966;BME280;59836;52.132;5.442;2023-04-09T03:50:37;102597.44;;;9.10;86.95
71966;BME280;59836;52.132;5.442;2023-04-09T03:53:03;102593.88;;;9.09;87.35
71966;BME280;59836;52.132;5.442;2023-04-09T03:55:29;102594.50;;;9.11;87.70
71966;BME280;59836;52.132;5.442;2023-04-09T03:57:56;102581.19;;;9.10;87.34
71966;BME280;59836;52.132;5.442;2023-04-09T04:00:22;102575.97;;;9.08;86.85
71966;BME280;59836;52.132;5.442;2023-04-09T04:02:50;102581.41;;;9.08;87.41
71966;BME280;59836;52.132;5.442;2023-04-09T04:05:16;102588.47;;;9.09;87.44
71966;BME280;59836;52.132;5.442;2023-04-09T04:07:43;102576.81;;;9.09;87.33
71966;BME280;59836;52.132;5.442;2023-04-09T04:10:10;102590.56;;;9.07;87.16
71966;BME280;59836;52.132;5.442;2023-04-09T04:12:36;102586.19;;;9.06;87.52
71966;BME280;59836;52.132;5.442;2023-04-09T04:15:03;102588.09;;;9.06;87.33
71966;BME280;59836;52.132;5.442;2023-04-09T04:17:30;102588.91;;;9.06;87.41
71966;BME280;59836;52.132;5.442;2023-04-09T04:19:56;102588.09;;;9.06;87.43
71966;BME280;59836;52.132;5.442;2023-04-09T04:22:22;102588.91;;;9.06;87.28
71966;BME280;59836;52.132;5.442;2023-04-09T04:24:51;102574.31;;;9.07;87.18
71966;BME280;59836;52.132;5.442;2023-04-09T04:27:18;102575.16;;;9.08;86.49
71966;BME280;59836;52.132;5.442;2023-04-09T04:29:44;102575.97;;;9.08;86.77
71966;BME280;59836;52.132;5.442;2023-04-09T04:32:10;102569.97;;;9.06;87.19
71966;BME280;59836;52.132;5.442;2023-04-09T04:34:37;102575.38;;;9.06;87.18
71966;BME280;59836;52.132;5.442;2023-04-09T04:37:03;102578.06;;;9.06;86.81
71966;BME280;59836;52.132;5.442;2023-04-09T04:39:30;102573.72;;;9.05;87.32
71966;BME280;59836;52.132;5.442;2023-04-09T04:41:56;102585.59;;;9.04;87.14
71966;BME280;59836;52.132;5.442;2023-04-09T04:44:23;102584.53;;;9.05;87.33
71966;BME280;59836;52.132;5.442;2023-04-09T04:46:49;102577.47;;;9.04;87.44
71966;BME280;59836;52.132;5.442;2023-04-09T04:49:15;102588.28;;;9.04;87.47
71966;BME280;59836;52.132;5.442;2023-04-09T04:51:42;102577.47;;;9.04;87.12
71966;BME280;59836;52.132;5.442;2023-04-09T04:54:08;102587.25;;;9.05;87.18
71966;BME280;59836;52.132;5.442;2023-04-09T04:56:34;102581.00;;;9.05;87.11
71966;BME280;59836;52.132;5.442;2023-04-09T04:59:01;102579.78;;;9.00;86.24
71966;BME280;59836;52.132;5.442;2023-04-09T05:01:27;102580.59;;;9.01;86.62
71966;BME280;59836;52.132;5.442;2023-04-09T05:03:54;102585.19;;;9.00;86.83
71966;BME280;59836;52.132;5.442;2023-04-09T05:06:21;102583.91;;;9.03;86.55
71966;BME280;59836;52.132;5.442;2023-04-09T05:08:48;102575.81;;;9.03;86.23
71966;BME280;59836;52.132;5.442;2023-04-09T05:11:14;102574.75;;;9.04;86.39
71966;BME280;59836;52.132;5.442;2023-04-09T05:13:42;102572.03;;;9.04;85.72
71966;BME280;59836;52.132;5.442;2023-04-09T05:16:15;102566.03;;;9.02;86.17
71966;BME280;59836;52.132;5.442;2023-04-09T05:18:42;102572.91;;;9.05;86.18
71966;BME280;59836;52.132;5.442;2023-04-09T05:21:08;102568.28;;;9.05;86.52
71966;BME280;59836;52.132;5.442;2023-04-09T05:23:34;102572.28;;;9.03;86.25
71966;BME280;59836;52.132;5.442;2023-04-09T05:26:01;102573.72;;;9.05;86.08
71966;BME280;59836;52.132;5.442;2023-04-09T05:28:27;102584.75;;;9.04;86.00
71966;BME280;59836;52.132;5.442;2023-04-09T05:30:54;102583.91;;;9.03;85.89
71966;BME280;59836;52.132;5.442;2023-04-09T05:33:21;102583.91;;;9.03;85.87
71966;BME280;59836;52.132;5.442;2023-04-09T05:35:47;102587.66;;;9.02;85.87
71966;BME280;59836;52.132;5.442;2023-04-09T05:38:13;102588.13;;;8.99;85.72
71966;BME280;59836;52.132;5.442;2023-04-09T05:40:40;102582.72;;;8.99;85.41
71966;BME280;59836;52.132;5.442;2023-04-09T05:43:07;102582.31;;;8.95;85.12
71966;BME280;59836;52.132;5.442;2023-04-09T05:45:33;102587.53;;;8.97;85.03
71966;BME280;59836;52.132;5.442;2023-04-09T05:48:01;102588.94;;;8.99;85.26
71966;BME280;59836;52.132;5.442;2023-04-09T05:50:27;102586.91;;;8.95;84.97
71966;BME280;59836;52.132;5.442;2023-04-09T05:52:54;102593.13;;;8.95;84.98
71966;BME280;59836;52.132;5.442;2023-04-09T05:55:20;102592.50;;;8.93;85.07
71966;BME280;59836;52.132;5.442;2023-04-09T05:57:47;102598.53;;;8.95;84.72
71966;BME280;59836;52.132;5.442;2023-04-09T06:00:14;102593.53;;;8.99;84.73
71966;BME280;59836;52.132;5.442;2023-04-09T06:02:40;102595.22;;;9.00;84.92
71966;BME280;59836;52.132;5.442;2023-04-09T06:05:07;102596.84;;;9.01;85.06
71966;BME280;59836;52.132;5.442;2023-04-09T06:07:34;102597.28;;;8.98;84.68
71966;BME280;59836;52.132;5.442;2023-04-09T06:10:00;102586.47;;;8.98;84.98
71966;BME280;59836;52.132;5.442;2023-04-09T06:12:27;102600.63;;;9.00;85.17
71966;BME280;59836;52.132;5.442;2023-04-09T06:14:53;102591.41;;;9.01;85.15
71966;BME280;59836;52.132;5.442;2023-04-09T06:17:20;102592.03;;;9.03;84.86
71966;BME280;59836;52.132;5.442;2023-04-09T06:19:46;102597.25;;;9.05;84.73
71966;BME280;59836;52.132;5.442;2023-04-09T06:22:13;102598.06;;;9.05;84.84
71966;BME280;59836;52.132;5.442;2023-04-09T06:24:39;102597.88;;;9.07;84.54
71966;BME280;59836;52.132;5.442;2023-04-09T06:27:06;102592.44;;;9.07;84.28
71966;BME280;59836;52.132;5.442;2023-04-09T06:29:33;102603.91;;;9.09;84.58
71966;BME280;59836;52.132;5.442;2023-04-09T06:31:59;102596.59;;;9.09;84.75
71966;BME280;59836;52.132;5.442;2023-04-09T06:34:26;102599.72;;;9.13;84.54
71966;BME280;59836;52.132;5.442;2023-04-09T06:36:52;102602.81;;;9.16;84.79
71966;BME280;59836;52.132;5.442;2023-04-09T06:39:19;102614.69;;;9.15;84.03
71966;BME280;59836;52.132;5.442;2023-04-09T06:41:45;102613.63;;;9.16;84.42
71966;BME280;59836;52.132;5.442;2023-04-09T06:44:12;102606.97;;;9.19;84.43
71966;BME280;59836;52.132;5.442;2023-04-09T06:46:39;102618.19;;;9.23;84.47
71966;BME280;59836;52.132;5.442;2023-04-09T06:49:05;102610.66;;;9.25;84.50
71966;BME280;59836;52.132;5.442;2023-04-09T06:51:32;102616.94;;;9.25;84.46
71966;BME280;59836;52.132;5.442;2023-04-09T06:53:58;102608.59;;;9.27;84.45
71966;BME280;59836;52.132;5.442;2023-04-09T06:56:25;102610.66;;;9.25;84.36
71966;BME280;59836;52.132;5.442;2023-04-09T06:58:51;102616.31;;;9.23;84.66
71966;BME280;59836;52.132;5.442;2023-04-09T07:01:18;102616.09;;;9.25;84.21
71966;BME280;59836;52.132;5.442;2023-04-09T07:03:45;102614.59;;;9.29;84.90
71966;BME280;59836;52.132;5.442;2023-04-09T07:06:12;102607.09;;;9.31;84.16
71966;BME280;59836;52.132;5.442;2023-04-09T07:08:38;102612.69;;;9.36;84.00
71966;BME280;59836;52.132;5.442;2023-04-09T07:11:05;102608.69;;;9.45;83.56
71966;BME280;59836;52.132;5.442;2023-04-09T07:13:31;102617.16;;;9.56;83.92
71966;BME280;59836;52.132;5.442;2023-04-09T07:15:58;102609.75;;;9.70;82.97
71966;BME280;59836;52.132;5.442;2023-04-09T07:18:25;102615.97;;;9.77;81.96
71966;BME280;59836;52.132;5.442;2023-04-09T07:20:52;102614.69;;;9.80;81.21
71966;BME280;59836;52.132;5.442;2023-04-09T07:23:18;102619.06;;;9.81;81.60
71966;BME280;59836;52.132;5.442;2023-04-09T07:25:45;102618.81;;;9.89;81.40
71966;BME280;59836;52.132;5.442;2023-04-09T07:28:12;102620.47;;;9.90;79.92
71966;BME280;59836;52.132;5.442;2023-04-09T07:30:39;102615.47;;;9.87;79.51
71966;BME280;59836;52.132;5.442;2023-04-09T07:33:05;102624.59;;;9.93;79.47
71966;BME280;59836;52.132;5.442;2023-04-09T07:35:32;102622.91;;;9.98;79.35
71966;BME280;59836;52.132;5.442;2023-04-09T07:37:59;102621.59;;;10.01;79.19
71966;BME280;59836;52.132;5.442;2023-04-09T07:40:26;102621.16;;;10.04;78.48
71966;BME280;59836;52.132;5.442;2023-04-09T07:42:52;102622.16;;;10.10;78.73
71966;BME280;59836;52.132;5.442;2023-04-09T07:45:20;102620.03;;;10.12;77.90
71966;BME280;59836;52.132;5.442;2023-04-09T07:47:47;102614.78;;;10.17;77.75
71966;BME280;59836;52.132;5.442;2023-04-09T07:50:13;102610.72;;;10.26;77.70
71966;BME280;59836;52.132;5.442;2023-04-09T07:52:40;102618.97;;;10.38;76.85
71966;BME280;59836;52.132;5.442;2023-04-09T07:55:07;102607.88;;;10.46;76.56
71966;BME280;59836;52.132;5.442;2023-04-09T07:57:33;102614.06;;;10.54;75.60
71966;BME280;59836;52.132;5.442;2023-04-09T08:00:00;102607.84;;;10.65;75.62
71966;BME280;59836;52.132;5.442;2023-04-09T08:02:26;102614.63;;;10.74;75.38
71966;BME280;59836;52.132;5.442;2023-04-09T08:04:53;102611.72;;;10.76;75.12
71966;BME280;59836;52.132;5.442;2023-04-09T08:07:20;102609.44;;;10.73;74.73
71966;BME280;59836;52.132;5.442;2023-04-09T08:09:46;102608.16;;;10.75;74.56
71966;BME280;59836;52.132;5.442;2023-04-09T08:12:13;102603.88;;;10.86;75.01
71966;BME280;59836;52.132;5.442;2023-04-09T08:14:39;102609.88;;;10.88;74.79
71966;BME280;59836;52.132;5.442;2023-04-09T08:17:06;102602.34;;;10.90;73.53
71966;BME280;59836;52.132;5.442;2023-04-09T08:19:33;102607.84;;;10.84;73.64
71966;BME280;59836;52.132;5.442;2023-04-09T08:22:00;102610.81;;;10.82;74.28
71966;BME280;59836;52.132;5.442;2023-04-09T08:24:27;102603.47;;;10.83;74.27
71966;BME280;59836;52.132;5.442;2023-04-09T08:26:54;102613.22;;;10.90;73.97
71966;BME280;59836;52.132;5.442;2023-04-09T08:29:21;102609.34;;;10.98;74.63
71966;BME280;59836;52.132;5.442;2023-04-09T08:31:48;102608.34;;;11.11;73.25
71966;BME280;59836;52.132;5.442;2023-04-09T08:34:20;102612.84;;;11.17;73.25
71966;BME280;59836;52.132;5.442;2023-04-09T08:36:47;102610.88;;;11.25;73.70
71966;BME280;59836;52.132;5.442;2023-04-09T08:39:15;102613.19;;;11.51;72.94
71966;BME280;59836;52.132;5.442;2023-04-09T08:41:45;102611.69;;;11.67;72.30
71966;BME280;59836;52.132;5.442;2023-04-09T08:44:12;102605.44;;;11.67;71.26
71966;BME280;59836;52.132;5.442;2023-04-09T08:46:40;102602.47;;;11.69;71.92
71966;BME280;59836;52.132;5.442;2023-04-09T08:49:07;102607.91;;;11.69;71.01
71966;BME280;59836;52.132;5.442;2023-04-09T08:51:34;102605.91;;;11.64;72.18
71966;BME280;59836;52.132;5.442;2023-04-09T08:54:01;102603.56;;;11.79;71.64
71966;BME280;59836;52.132;5.442;2023-04-09T08:56:30;102605.22;;;11.80;71.41
71966;BME280;59836;52.132;5.442;2023-04-09T08:58:57;102608.03;;;11.74;71.71
71966;BME280;59836;52.132;5.442;2023-04-09T09:01:29;102598.00;;;11.74;71.39
71966;BME280;59836;52.132;5.442;2023-04-09T09:04:03;102599.31;;;11.84;71.07
71966;BME280;59836;52.132;5.442;2023-04-09T09:06:38;102598.03;;;11.98;71.09
71966;BME280;59836;52.132;5.442;2023-04-09T09:09:12;102583.88;;;12.08;70.93
71966;BME280;59836;52.132;5.442;2023-04-09T09:11:43;102592.16;;;12.13;70.96
71966;BME280;59836;52.132;5.442;2023-04-09T09:14:15;102591.53;;;11.99;70.94
71966;BME280;59836;52.132;5.442;2023-04-09T09:17:05;102588.50;;;12.07;70.81
71966;BME280;59836;52.132;5.442;2023-04-09T09:19:32;102592.63;;;12.10;71.92
71966;BME280;59836;52.132;5.442;2023-04-09T09:22:00;102578.56;;;12.13;71.48
71966;BME280;59836;52.132;5.442;2023-04-09T09:24:28;102581.13;;;12.20;70.86
71966;BME280;59836;52.132;5.442;2023-04-09T09:26:54;102581.25;;;12.25;70.11
71966;BME280;59836;52.132;5.442;2023-04-09T09:29:23;102587.75;;;12.24;70.16
71966;BME280;59836;52.132;5.442;2023-04-09T09:31:51;102585.75;;;12.31;71.07
71966;BME280;59836;52.132;5.442;2023-04-09T09:34:20;102580.19;;;12.26;69.89
71966;BME280;59836;52.132;5.442;2023-04-09T09:36:47;102582.78;;;12.21;69.88
71966;BME280;59836;52.132;5.442;2023-04-09T09:39:15;102572.03;;;12.26;69.82
71966;BME280;59836;52.132;5.442;2023-04-09T09:41:44;102570.00;;;12.33;69.43
71966;BME280;59836;52.132;5.442;2023-04-09T09:44:12;102569.41;;;12.43;69.62
71966;BME280;59836;52.132;5.442;2023-04-09T09:46:56;102562.66;;;12.46;69.12
71966;BME280;59836;52.132;5.442;2023-04-09T09:49:23;102565.69;;;12.61;69.28
71966;BME280;59836;52.132;5.442;2023-04-09T09:51:52;102574.19;;;12.77;67.90
71966;BME280;59836;52.132;5.442;2023-04-09T09:54:21;102571.66;;;12.87;68.20
71966;BME280;59836;52.132;5.442;2023-04-09T09:56:51;102570.22;;;12.96;67.71
71966;BME280;59836;52.132;5.442;2023-04-09T09:59:20;102574.28;;;13.11;67.17
71966;BME280;59836;52.132;5.442;2023-04-09T10:01:58;102566.72;;;13.13;66.41
71966;BME280;59836;52.132;5.442;2023-04-09T10:04:27;102566.22;;;13.16;66.50
71966;BME280;59836;52.132;5.442;2023-04-09T10:06:54;102563.09;;;13.24;66.46
71966;BME280;59836;52.132;5.442;2023-04-09T10:09:22;102559.84;;;13.27;66.40
71966;BME280;59836;52.132;5.442;2023-04-09T10:11:48;102555.06;;;13.35;66.46
71966;BME280;59836;52.132;5.442;2023-04-09T10:14:15;102547.09;;;13.45;65.53
71966;BME280;59836;52.132;5.442;2023-04-09T10:16:43;102546.69;;;13.53;65.04
71966;BME280;59836;52.132;5.442;2023-04-09T10:19:09;102547.44;;;13.49;65.08
71966;BME280;59836;52.132;5.442;2023-04-09T10:24:48;102537.84;;;13.80;65.55
71966;BME280;59836;52.132;5.442;2023-04-09T10:27:16;102527.75;;;13.81;64.77
71966;BME280;59836;52.132;5.442;2023-04-09T10:29:48;102522.00;;;13.77;64.76
71966;BME280;59836;52.132;5.442;2023-04-09T10:32:21;102522.13;;;13.87;64.20
71966;BME280;59836;52.132;5.442;2023-04-09T10:34:51;102512.22;;;13.81;64.41
71966;BME280;59836;52.132;5.442;2023-04-09T10:37:23;102511.53;;;13.91;64.62
71966;BME280;59836;52.132;5.442;2023-04-09T10:39:51;102512.25;;;14.03;64.64
71966;BME280;59836;52.132;5.442;2023-04-09T10:42:38;102511.53;;;14.08;64.87
71966;BME280;59836;52.132;5.442;2023-04-09T10:45:12;102512.03;;;14.05;63.87
71966;BME280;59836;52.132;5.442;2023-04-09T10:47:42;102508.16;;;14.01;62.92
71966;BME280;59836;52.132;5.442;2023-04-09T10:50:24;102506.72;;;14.15;63.76
71966;BME280;59836;52.132;5.442;2023-04-09T10:52:56;102492.72;;;14.34;63.60
71966;BME280;59836;52.132;5.442;2023-04-09T10:55:36;102494.81;;;14.49;63.21
71966;BME280;59836;52.132;5.442;2023-04-09T10:58:04;102488.34;;;14.55;61.80
71966;BME280;59836;52.132;5.442;2023-04-09T11:00:36;102500.28;;;14.49;61.27
71966;BME280;59836;52.132;5.442;2023-04-09T11:03:20;102483.97;;;14.32;60.94
71966;BME280;59836;52.132;5.442;2023-04-09T11:06:01;102482.94;;;14.38;61.07
71966;BME280;59836;52.132;5.442;2023-04-09T11:08:30;102485.84;;;14.54;60.50
71966;BME280;59836;52.132;5.442;2023-04-09T11:10:57;102477.22;;;14.62;59.96
71966;BME280;59836;52.132;5.442;2023-04-09T11:13:29;102476.59;;;14.55;58.83
71966;BME280;59836;52.132;5.442;2023-04-09T11:15:57;102474.88;;;14.49;58.14
71966;BME280;59836;52.132;5.442;2023-04-09T11:18:25;102481.03;;;14.61;58.32
71966;BME280;59836;52.132;5.442;2023-04-09T11:21:00;102466.84;;;14.64;57.25
71966;BME280;59836;52.132;5.442;2023-04-09T11:23:27;102472.88;;;14.66;56.31
71966;BME280;59836;52.132;5.442;2023-04-09T11:25:54;102473.03;;;14.76;57.26
71966;BME280;59836;52.132;5.442;2023-04-09T11:28:22;102474.78;;;14.88;56.38
71966;BME280;59836;52.132;5.442;2023-04-09T11:30:50;102461.78;;;15.00;56.17
71966;BME280;59836;52.132;5.442;2023-04-09T11:33:16;102463.19;;;15.08;54.75
71966;BME280;59836;52.132;5.442;2023-04-09T11:35:45;102461.34;;;15.14;54.71
71966;BME280;59836;52.132;5.442;2023-04-09T11:38:12;102455.91;;;15.19;54.64
71966;BME280;59836;52.132;5.442;2023-04-09T11:40:40;102457.22;;;15.11;54.86
71966;BME280;59836;52.132;5.442;2023-04-09T11:43:13;102453.72;;;15.16;54.55
71966;BME280;59836;52.132;5.442;2023-04-09T11:45:42;102451.34;;;15.30;54.13
71966;BME280;59836;52.132;5.442;2023-04-09T11:48:09;102465.53;;;15.27;54.28
71966;BME280;59836;52.132;5.442;2023-04-09T11:50:36;102459.78;;;15.23;53.23
71966;BME280;59836;52.132;5.442;2023-04-09T11:53:35;102465.31;;;15.33;54.10
71966;BME280;59836;52.132;5.442;2023-04-09T11:56:02;102462.06;;;15.42;53.85
71966;BME280;59836;52.132;5.442;2023-04-09T11:58:29;102460.47;;;15.46;52.51
71966;BME280;59836;52.132;5.442;2023-04-09T12:00:58;102452.22;;;15.35;52.23
71966;BME280;59836;52.132;5.442;2023-04-09T12:03:30;102447.41;;;15.15;52.44
71966;BME280;59836;52.132;5.442;2023-04-09T12:06:00;102449.19;;;14.99;53.12
71966;BME280;59836;52.132;5.442;2023-04-09T12:08:27;102451.84;;;14.89;53.86
71966;BME280;59836;52.132;5.442;2023-04-09T12:10:53;102443.22;;;15.02;53.32
71966;BME280;59836;52.132;5.442;2023-04-09T12:13:20;102447.13;;;15.12;52.44
71966;BME280;59836;52.132;5.442;2023-04-09T12:15:47;102442.09;;;14.98;52.56
71966;BME280;59836;52.132;5.442;2023-04-09T12:18:14;102443.22;;;15.02;52.45
71966;BME280;59836;52.132;5.442;2023-04-09T12:20:42;102443.81;;;15.10;52.78
71966;BME280;59836;52.132;5.442;2023-04-09T12:23:10;102438.47;;;15.25;53.29
71966;BME280;59836;52.132;5.442;2023-04-09T12:25:39;102441.81;;;15.38;52.27
71966;BME280;59836;52.132;5.442;2023-04-09T12:28:08;102438.56;;;15.41;50.94
71966;BME280;59836;52.132;5.442;2023-04-09T12:30:34;102435.88;;;15.51;52.26
71966;BME280;59836;52.132;5.442;2023-04-09T12:33:02;102442.81;;;15.64;51.31
71966;BME280;59836;52.132;5.442;2023-04-09T12:35:29;102433.81;;;15.69;50.73
71966;BME280;59836;52.132;5.442;2023-04-09T12:37:56;102440.41;;;15.73;51.51
71966;BME280;59836;52.132;5.442;2023-04-09T12:40:24;102439.06;;;15.75;50.87
71966;BME280;59836;52.132;5.442;2023-04-09T12:42:51;102429.47;;;15.78;50.86
71966;BME280;59836;52.132;5.442;2023-04-09T12:45:18;102425.94;;;15.77;51.58
71966;BME280;59836;52.132;5.442;2023-04-09T12:47:45;102428.69;;;15.77;51.14
71966;BME280;59836;52.132;5.442;2023-04-09T12:50:12;102433.13;;;15.89;50.74
71966;BME280;59836;52.132;5.442;2023-04-09T12:52:40;102429.88;;;16.02;50.12
71966;BME280;59836;52.132;5.442;2023-04-09T12:55:07;102421.44;;;16.09;49.29
71966;BME280;59836;52.132;5.442;2023-04-09T12:57:36;102429.66;;;16.09;49.46
71966;BME280;59836;52.132;5.442;2023-04-09T13:00:03;102430.13;;;15.90;49.51
71966;BME280;59836;52.132;5.442;2023-04-09T13:02:31;102430.44;;;15.56;49.93
71966;BME280;59836;52.132;5.442;2023-04-09T13:04:57;102429.78;;;15.39;50.61
71966;BME280;59836;52.132;5.442;2023-04-09T13:07:24;102436.34;;;15.38;50.92
71966;BME280;59836;52.132;5.442;2023-04-09T13:09:51;102426.56;;;15.47;50.99
71966;BME280;59836;52.132;5.442;2023-04-09T13:12:18;102425.56;;;15.63;50.67